sensor_id;sensor_type;location;lat;lon;timestamp;temperature;humidity
23289;DHT22;11813;50.834;4.280;2023-03-23T00:00:51;13.80;99.90
23289;DHT22;11813;50.834;4.280;2023-03-23T00:03:16;13.70;99.90
23289;DHT22;11813;50.834;4.280;2023-03-23T00:05:42;13.80;99.90
23289;DHT22;11813;50.834;4.280;2023-03-23T00:08:21;13.90;99.90
23289;DHT22;11813;50.834;4.280;2023-03-23T00:10:50;14.00;99.90
23289;DHT22;11813;50.834;4.280;2023-03-23T00:13:23;14.00;99.90
23289;DHT22;11813;50.834;4.280;2023-03-23T00:15:49;13.90;99.90
23289;DHT22;11813;50.834;4.280;2023-03-23T00:18:20;13.90;99.90
23289;DHT22;11813;50.834;4.280;2023-03-23T00:20:54;13.90;99.90
23289;DHT22;11813;50.834;4.280;2023-03-23T00:23:24;13.90;99.90
23289;DHT22;11813;50.834;4.280;2023-03-23T00:25:53;14.00;99.90
23289;DHT22;11813;50.834;4.280;2023-03-23T00:28:22;13.90;99.90
23289;DHT22;11813;50.834;4.280;2023-03-23T00:30:57;13.80;99.90
23289;DHT22;11813;50.834;4.280;2023-03-23T00:33:25;13.80;99.90
23289;DHT22;11813;50.834;4.280;2023-03-23T00:35:51;13.90;99.90
23289;DHT22;11813;50.834;4.280;2023-03-23T00:38:19;13.80;99.90
23289;DHT22;11813;50.834;4.280;2023-03-23T00:40:45;13.80;99.90
23289;DHT22;11813;50.834;4.280;2023-03-23T00:43:13;13.70;99.90
23289;DHT22;11813;50.834;4.280;2023-03-23T00:45:39;13.80;99.90
23289;DHT22;11813;50.834;4.280;2023-03-23T00:48:05;13.90;99.90
23289;DHT22;11813;50.834;4.280;2023-03-23T00:50:31;13.90;99.90
23289;DHT22;11813;50.834;4.280;2023-03-23T00:52:57;13.90;99.90
23289;DHT22;11813;50.834;4.280;2023-03-23T00:55:24;13.80;99.90
23289;DHT22;11813;50.834;4.280;2023-03-23T00:57:50;13.80;99.90
23289;DHT22;11813;50.834;4.280;2023-03-23T01:00:17;13.80;99.90
23289;DHT22;11813;50.834;4.280;2023-03-23T01:02:44;13.80;99.90
23289;DHT22;11813;50.834;4.280;2023-03-23T01:05:11;13.70;99.90
23289;DHT22;11813;50.834;4.280;2023-03-23T01:07:36;13.80;99.90
23289;DHT22;11813;50.834;4.280;2023-03-23T01:10:03;13.70;99.90
23289;DHT22;11813;50.834;4.280;2023-03-23T01:12:29;13.70;99.90
23289;DHT22;11813;50.834;4.280;2023-03-23T01:14:55;13.70;99.90
23289;DHT22;11813;50.834;4.280;2023-03-23T01:17:21;13.70;99.90
23289;DHT22;11813;50.834;4.280;2023-03-23T01:19:47;13.80;99.90
23289;DHT22;11813;50.834;4.280;2023-03-23T01:22:12;13.80;99.90
23289;DHT22;11813;50.834;4.280;2023-03-23T01:24:38;13.90;99.90
23289;DHT22;11813;50.834;4.280;2023-03-23T01:27:03;13.90;99.90
23289;DHT22;11813;50.834;4.280;2023-03-23T01:29:33;13.90;99.90
23289;DHT22;11813;50.834;4.280;2023-03-23T01:31:59;13.80;99.90
23289;DHT22;11813;50.834;4.280;2023-03-23T01:34:24;13.80;99.90
23289;DHT22;11813;50.834;4.280;2023-03-23T01:36:50;13.80;99.90
23289;DHT22;11813;50.834;4.280;2023-03-23T01:39:15;13.70;99.90
23289;DHT22;11813;50.834;4.280;2023-03-23T01:41:41;13.70;99.90
23289;DHT22;11813;50.834;4.280;2023-03-23T01:46:55;13.70;99.90
23289;DHT22;11813;50.834;4.280;2023-03-23T01:49:27;13.70;99.90
23289;DHT22;11813;50.834;4.280;2023-03-23T01:52:15;13.70;99.90
23289;DHT22;11813;50.834;4.280;2023-03-23T01:54:43;13.70;99.90
23289;DHT22;11813;50.834;4.280;2023-03-23T01:57:15;13.60;99.90
23289;DHT22;11813;50.834;4.280;2023-03-23T01:59:44;13.60;99.90
23289;DHT22;11813;50.834;4.280;2023-03-23T02:02:12;13.60;99.90
23289;DHT22;11813;50.834;4.280;2023-03-23T02:04:38;13.70;99.90
23289;DHT22;11813;50.834;4.280;2023-03-23T02:07:06;13.70;99.90
23289;DHT22;11813;50.834;4.280;2023-03-23T02:09:31;13.60;99.90
23289;DHT22;11813;50.834;4.280;2023-03-23T02:11:57;13.60;99.90
23289;DHT22;11813;50.834;4.280;2023-03-23T02:14:25;13.60;99.90
23289;DHT22;11813;50.834;4.280;2023-03-23T02:17:02;13.60;99.90
23289;DHT22;11813;50.834;4.280;2023-03-23T02:33:46;13.50;99.90
23289;DHT22;11813;50.834;4.280;2023-03-23T02:36:23;13.50;99.90
23289;DHT22;11813;50.834;4.280;2023-03-23T02:41:42;13.50;99.90
23289;DHT22;11813;50.834;4.280;2023-03-23T02:44:08;13.50;99.90
23289;DHT22;11813;50.834;4.280;2023-03-23T02:46:35;13.40;99.90
23289;DHT22;11813;50.834;4.280;2023-03-23T02:49:03;13.40;99.90
23289;DHT22;11813;50.834;4.280;2023-03-23T02:51:33;13.40;99.90
23289;DHT22;11813;50.834;4.280;2023-03-23T02:54:01;13.40;99.90
23289;DHT22;11813;50.834;4.280;2023-03-23T02:56:28;13.40;99.90
23289;DHT22;11813;50.834;4.280;2023-03-23T02:58:55;13.40;99.90
23289;DHT22;11813;50.834;4.280;2023-03-23T03:04:00;13.40;99.90
23289;DHT22;11813;50.834;4.280;2023-03-23T03:11:51;13.40;99.90
23289;DHT22;11813;50.834;4.280;2023-03-23T03:14:53;13.40;99.90
23289;DHT22;11813;50.834;4.280;2023-03-23T03:17:26;13.40;99.90
23289;DHT22;11813;50.834;4.280;2023-03-23T03:19:58;13.40;99.90
23289;DHT22;11813;50.834;4.280;2023-03-23T03:22:35;13.40;99.90
23289;DHT22;11813;50.834;4.280;2023-03-23T03:25:07;13.40;99.90
23289;DHT22;11813;50.834;4.280;2023-03-23T03:27:34;13.40;99.90
23289;DHT22;11813;50.834;4.280;2023-03-23T03:30:03;13.40;99.90
23289;DHT22;11813;50.834;4.280;2023-03-23T03:32:38;13.40;99.90
23289;DHT22;11813;50.834;4.280;2023-03-23T03:35:06;13.40;99.90
23289;DHT22;11813;50.834;4.280;2023-03-23T03:37:36;13.40;99.90
23289;DHT22;11813;50.834;4.280;2023-03-23T03:40:13;13.40;99.90
23289;DHT22;11813;50.834;4.280;2023-03-23T03:42:40;13.30;99.90
23289;DHT22;11813;50.834;4.280;2023-03-23T03:45:07;13.40;99.90
23289;DHT22;11813;50.834;4.280;2023-03-23T03:47:33;13.40;99.90
23289;DHT22;11813;50.834;4.280;2023-03-23T03:49:59;13.40;99.90
23289;DHT22;11813;50.834;4.280;2023-03-23T03:52:24;13.40;99.90
23289;DHT22;11813;50.834;4.280;2023-03-23T03:54:50;13.40;99.90
23289;DHT22;11813;50.834;4.280;2023-03-23T03:57:16;13.30;99.90
23289;DHT22;11813;50.834;4.280;2023-03-23T03:59:43;13.30;99.90
23289;DHT22;11813;50.834;4.280;2023-03-23T04:02:09;13.30;99.90
23289;DHT22;11813;50.834;4.280;2023-03-23T04:04:35;13.30;99.90
23289;DHT22;11813;50.834;4.280;2023-03-23T04:07:00;13.40;99.90
23289;DHT22;11813;50.834;4.280;2023-03-23T04:09:28;13.30;99.90
23289;DHT22;11813;50.834;4.280;2023-03-23T04:11:53;13.30;99.90
23289;DHT22;11813;50.834;4.280;2023-03-23T04:14:19;13.30;99.90
23289;DHT22;11813;50.834;4.280;2023-03-23T04:16:44;13.30;99.90
23289;DHT22;11813;50.834;4.280;2023-03-23T04:19:10;13.30;99.90
23289;DHT22;11813;50.834;4.280;2023-03-23T04:21:37;13.20;99.90
23289;DHT22;11813;50.834;4.280;2023-03-23T04:24:03;13.20;99.90
23289;DHT22;11813;50.834;4.280;2023-03-23T04:26:29;13.10;99.90
23289;DHT22;11813;50.834;4.280;2023-03-23T04:28:55;13.20;99.90
23289;DHT22;11813;50.834;4.280;2023-03-23T04:31:22;13.10;99.90
23289;DHT22;11813;50.834;4.280;2023-03-23T04:33:50;13.10;99.90
23289;DHT22;11813;50.834;4.280;2023-03-23T04:36:17;13.10;99.90
23289;DHT22;11813;50.834;4.280;2023-03-23T04:38:43;13.10;99.90
23289;DHT22;11813;50.834;4.280;2023-03-23T04:41:09;13.10;99.90
23289;DHT22;11813;50.834;4.280;2023-03-23T04:43:34;13.10;99.90
23289;DHT22;11813;50.834;4.280;2023-03-23T04:46:07;13.20;99.90
23289;DHT22;11813;50.834;4.280;2023-03-23T04:48:34;13.20;99.90
23289;DHT22;11813;50.834;4.280;2023-03-23T04:51:02;13.10;99.90
23289;DHT22;11813;50.834;4.280;2023-03-23T04:53:32;13.10;99.90
23289;DHT22;11813;50.834;4.280;2023-03-23T04:55:58;13.00;99.90
23289;DHT22;11813;50.834;4.280;2023-03-23T04:58:23;13.10;99.90
23289;DHT22;11813;50.834;4.280;2023-03-23T05:00:50;13.00;99.90
23289;DHT22;11813;50.834;4.280;2023-03-23T05:03:17;13.00;99.90
23289;DHT22;11813;50.834;4.280;2023-03-23T05:05:43;13.00;99.90
23289;DHT22;11813;50.834;4.280;2023-03-23T05:08:13;12.90;99.90
23289;DHT22;11813;50.834;4.280;2023-03-23T05:10:38;13.00;99.90
23289;DHT22;11813;50.834;4.280;2023-03-23T05:13:04;13.00;99.90
23289;DHT22;11813;50.834;4.280;2023-03-23T05:15:29;13.10;99.90
23289;DHT22;11813;50.834;4.280;2023-03-23T05:17:55;13.00;99.90
23289;DHT22;11813;50.834;4.280;2023-03-23T05:20:21;12.90;99.90
23289;DHT22;11813;50.834;4.280;2023-03-23T05:22:47;12.90;99.90
23289;DHT22;11813;50.834;4.280;2023-03-23T05:25:17;12.90;99.90
23289;DHT22;11813;50.834;4.280;2023-03-23T05:27:46;13.00;99.90
23289;DHT22;11813;50.834;4.280;2023-03-23T05:30:18;13.00;99.90
23289;DHT22;11813;50.834;4.280;2023-03-23T05:32:44;13.00;99.90
23289;DHT22;11813;50.834;4.280;2023-03-23T05:35:12;13.00;99.90
23289;DHT22;11813;50.834;4.280;2023-03-23T05:37:38;13.00;99.90
23289;DHT22;11813;50.834;4.280;2023-03-23T05:40:05;13.10;99.90
23289;DHT22;11813;50.834;4.280;2023-03-23T05:42:35;13.10;99.90
23289;DHT22;11813;50.834;4.280;2023-03-23T05:45:02;13.10;99.90
23289;DHT22;11813;50.834;4.280;2023-03-23T05:47:28;13.10;99.90
23289;DHT22;11813;50.834;4.280;2023-03-23T05:49:54;13.10;99.90
23289;DHT22;11813;50.834;4.280;2023-03-23T05:52:20;13.10;99.90
23289;DHT22;11813;50.834;4.280;2023-03-23T05:54:46;13.00;99.90
23289;DHT22;11813;50.834;4.280;2023-03-23T05:57:11;13.10;99.90
23289;DHT22;11813;50.834;4.280;2023-03-23T05:59:37;13.10;99.90
23289;DHT22;11813;50.834;4.280;2023-03-23T06:02:04;13.10;99.90
23289;DHT22;11813;50.834;4.280;2023-03-23T06:04:30;13.10;99.90
23289;DHT22;11813;50.834;4.280;2023-03-23T06:07:01;13.10;99.90
23289;DHT22;11813;50.834;4.280;2023-03-23T06:09:27;13.10;99.90
23289;DHT22;11813;50.834;4.280;2023-03-23T06:11:53;13.10;99.90
23289;DHT22;11813;50.834;4.280;2023-03-23T06:14:19;13.10;99.90
23289;DHT22;11813;50.834;4.280;2023-03-23T06:16:44;13.10;99.90
23289;DHT22;11813;50.834;4.280;2023-03-23T06:19:10;13.10;99.90
23289;DHT22;11813;50.834;4.280;2023-03-23T06:21:36;13.10;99.90
23289;DHT22;11813;50.834;4.280;2023-03-23T06:24:02;13.10;99.90
23289;DHT22;11813;50.834;4.280;2023-03-23T06:26:32;13.10;99.90
23289;DHT22;11813;50.834;4.280;2023-03-23T06:28:58;13.10;99.90
23289;DHT22;11813;50.834;4.280;2023-03-23T06:31:26;13.20;99.90
23289;DHT22;11813;50.834;4.280;2023-03-23T06:33:52;13.20;99.90
23289;DHT22;11813;50.834;4.280;2023-03-23T06:36:18;13.20;99.90
23289;DHT22;11813;50.834;4.280;2023-03-23T06:38:44;13.20;99.90
23289;DHT22;11813;50.834;4.280;2023-03-23T06:41:11;13.20;99.90
23289;DHT22;11813;50.834;4.280;2023-03-23T06:43:36;13.20;99.90
23289;DHT22;11813;50.834;4.280;2023-03-23T06:46:05;13.20;99.90
23289;DHT22;11813;50.834;4.280;2023-03-23T06:48:31;13.20;99.90
23289;DHT22;11813;50.834;4.280;2023-03-23T06:50:57;13.20;99.90
23289;DHT22;11813;50.834;4.280;2023-03-23T06:53:23;13.10;99.90
23289;DHT22;11813;50.834;4.280;2023-03-23T06:55:49;13.00;99.90
23289;DHT22;11813;50.834;4.280;2023-03-23T06:58:15;12.80;99.90
23289;DHT22;11813;50.834;4.280;2023-03-23T07:00:41;12.80;99.90
23289;DHT22;11813;50.834;4.280;2023-03-23T07:03:07;12.70;99.90
23289;DHT22;11813;50.834;4.280;2023-03-23T07:05:34;12.40;99.90
23289;DHT22;11813;50.834;4.280;2023-03-23T07:08:01;11.90;99.90
23289;DHT22;11813;50.834;4.280;2023-03-23T07:10:27;11.50;99.90
23289;DHT22;11813;50.834;4.280;2023-03-23T07:12:53;11.30;99.90
23289;DHT22;11813;50.834;4.280;2023-03-23T07:15:19;11.00;99.90
23289;DHT22;11813;50.834;4.280;2023-03-23T07:17:44;10.80;99.90
23289;DHT22;11813;50.834;4.280;2023-03-23T07:20:11;10.70;99.90
23289;DHT22;11813;50.834;4.280;2023-03-23T07:22:36;10.70;99.90
23289;DHT22;11813;50.834;4.280;2023-03-23T07:25:03;10.60;99.90
23289;DHT22;11813;50.834;4.280;2023-03-23T07:27:30;10.60;99.90
23289;DHT22;11813;50.834;4.280;2023-03-23T07:29:55;10.70;99.90
23289;DHT22;11813;50.834;4.280;2023-03-23T07:32:23;10.80;99.90
23289;DHT22;11813;50.834;4.280;2023-03-23T07:34:49;10.80;99.90
23289;DHT22;11813;50.834;4.280;2023-03-23T07:37:15;10.90;99.90
23289;DHT22;11813;50.834;4.280;2023-03-23T07:39:41;11.00;99.90
23289;DHT22;11813;50.834;4.280;2023-03-23T07:42:08;11.20;99.90
23289;DHT22;11813;50.834;4.280;2023-03-23T07:44:33;11.40;99.90
23289;DHT22;11813;50.834;4.280;2023-03-23T07:46:59;11.40;99.90
23289;DHT22;11813;50.834;4.280;2023-03-23T07:49:25;11.50;99.90
23289;DHT22;11813;50.834;4.280;2023-03-23T07:51:52;11.60;99.90
23289;DHT22;11813;50.834;4.280;2023-03-23T07:54:17;11.70;99.90
23289;DHT22;11813;50.834;4.280;2023-03-23T07:56:43;11.90;99.90
23289;DHT22;11813;50.834;4.280;2023-03-23T07:59:11;11.90;99.90
23289;DHT22;11813;50.834;4.280;2023-03-23T08:01:38;12.00;99.90
23289;DHT22;11813;50.834;4.280;2023-03-23T08:04:04;12.00;99.90
23289;DHT22;11813;50.834;4.280;2023-03-23T08:06:32;12.00;99.90
23289;DHT22;11813;50.834;4.280;2023-03-23T08:08:58;12.10;99.90
23289;DHT22;11813;50.834;4.280;2023-03-23T08:11:25;11.90;99.90
23289;DHT22;11813;50.834;4.280;2023-03-23T08:13:51;11.80;99.90
23289;DHT22;11813;50.834;4.280;2023-03-23T08:16:17;11.70;99.90
23289;DHT22;11813;50.834;4.280;2023-03-23T08:18:45;11.60;99.90
23289;DHT22;11813;50.834;4.280;2023-03-23T08:21:11;11.60;99.90
23289;DHT22;11813;50.834;4.280;2023-03-23T08:23:38;11.60;99.90
23289;DHT22;11813;50.834;4.280;2023-03-23T08:26:05;11.50;99.90
23289;DHT22;11813;50.834;4.280;2023-03-23T08:28:33;11.50;99.90
23289;DHT22;11813;50.834;4.280;2023-03-23T08:30:59;11.40;99.90
23289;DHT22;11813;50.834;4.280;2023-03-23T08:33:25;11.30;99.90
23289;DHT22;11813;50.834;4.280;2023-03-23T08:35:55;11.40;99.90
23289;DHT22;11813;50.834;4.280;2023-03-23T08:38:22;11.30;99.90
23289;DHT22;11813;50.834;4.280;2023-03-23T08:40:47;11.30;99.90
23289;DHT22;11813;50.834;4.280;2023-03-23T08:43:13;11.30;99.90
23289;DHT22;11813;50.834;4.280;2023-03-23T08:45:40;11.30;99.90
23289;DHT22;11813;50.834;4.280;2023-03-23T08:48:07;11.30;99.90
23289;DHT22;11813;50.834;4.280;2023-03-23T08:50:33;11.50;99.90
23289;DHT22;11813;50.834;4.280;2023-03-23T08:52:58;11.60;99.90
23289;DHT22;11813;50.834;4.280;2023-03-23T08:55:24;11.60;99.90
23289;DHT22;11813;50.834;4.280;2023-03-23T08:57:51;11.70;99.90
23289;DHT22;11813;50.834;4.280;2023-03-23T09:00:19;11.90;99.90
23289;DHT22;11813;50.834;4.280;2023-03-23T09:02:52;11.80;99.90
23289;DHT22;11813;50.834;4.280;2023-03-23T09:05:20;11.70;99.90
23289;DHT22;11813;50.834;4.280;2023-03-23T09:07:49;11.80;99.90
23289;DHT22;11813;50.834;4.280;2023-03-23T09:10:15;11.90;99.90
23289;DHT22;11813;50.834;4.280;2023-03-23T09:12:42;11.90;99.90
23289;DHT22;11813;50.834;4.280;2023-03-23T09:15:10;12.00;99.90
23289;DHT22;11813;50.834;4.280;2023-03-23T09:17:41;12.10;99.90
23289;DHT22;11813;50.834;4.280;2023-03-23T09:20:08;12.10;99.90
23289;DHT22;11813;50.834;4.280;2023-03-23T09:22:44;12.10;99.90
23289;DHT22;11813;50.834;4.280;2023-03-23T09:25:14;12.00;99.90
23289;DHT22;11813;50.834;4.280;2023-03-23T09:27:41;12.00;99.90
23289;DHT22;11813;50.834;4.280;2023-03-23T09:30:09;12.00;99.90
23289;DHT22;11813;50.834;4.280;2023-03-23T09:32:36;12.10;99.90
23289;DHT22;11813;50.834;4.280;2023-03-23T09:35:03;12.20;99.90
23289;DHT22;11813;50.834;4.280;2023-03-23T09:37:29;12.40;99.90
23289;DHT22;11813;50.834;4.280;2023-03-23T09:39:55;12.50;99.90
23289;DHT22;11813;50.834;4.280;2023-03-23T09:47:57;12.80;99.90
23289;DHT22;11813;50.834;4.280;2023-03-23T09:50:28;13.00;99.90
23289;DHT22;11813;50.834;4.280;2023-03-23T09:53:05;13.10;99.90
23289;DHT22;11813;50.834;4.280;2023-03-23T09:55:35;13.30;99.90
23289;DHT22;11813;50.834;4.280;2023-03-23T10:01:08;13.60;99.90
23289;DHT22;11813;50.834;4.280;2023-03-23T10:03:43;13.50;99.90
23289;DHT22;11813;50.834;4.280;2023-03-23T10:06:17;13.60;99.90
23289;DHT22;11813;50.834;4.280;2023-03-23T10:08:57;13.60;99.90
23289;DHT22;11813;50.834;4.280;2023-03-23T10:14:06;13.60;99.90
23289;DHT22;11813;50.834;4.280;2023-03-23T10:21:59;13.50;99.90
23289;DHT22;11813;50.834;4.280;2023-03-23T10:24:43;13.80;99.90
23289;DHT22;11813;50.834;4.280;2023-03-23T10:27:38;13.90;99.90
23289;DHT22;11813;50.834;4.280;2023-03-23T10:30:33;13.90;99.90
23289;DHT22;11813;50.834;4.280;2023-03-23T10:35:50;13.90;99.90
23289;DHT22;11813;50.834;4.280;2023-03-23T10:39:06;13.70;99.90
23289;DHT22;11813;50.834;4.280;2023-03-23T10:41:17;13.70;99.90
23289;DHT22;11813;50.834;4.280;2023-03-23T10:43:44;13.70;99.90
23289;DHT22;11813;50.834;4.280;2023-03-23T10:46:27;13.80;99.90
23289;DHT22;11813;50.834;4.280;2023-03-23T10:48:56;14.10;99.90
23289;DHT22;11813;50.834;4.280;2023-03-23T10:51:28;14.50;99.90
23289;DHT22;11813;50.834;4.280;2023-03-23T10:54:00;14.70;99.90
23289;DHT22;11813;50.834;4.280;2023-03-23T10:56:33;14.70;99.90
23289;DHT22;11813;50.834;4.280;2023-03-23T10:59:10;14.70;99.90
23289;DHT22;11813;50.834;4.280;2023-03-23T11:01:36;14.60;99.90
23289;DHT22;11813;50.834;4.280;2023-03-23T11:04:03;14.80;99.90
23289;DHT22;11813;50.834;4.280;2023-03-23T11:06:32;14.90;99.90
23289;DHT22;11813;50.834;4.280;2023-03-23T11:09:11;15.10;99.90
23289;DHT22;11813;50.834;4.280;2023-03-23T11:11:39;15.20;99.90
23289;DHT22;11813;50.834;4.280;2023-03-23T11:14:26;15.00;99.90
23289;DHT22;11813;50.834;4.280;2023-03-23T11:16:55;14.80;99.90
23289;DHT22;11813;50.834;4.280;2023-03-23T11:21:51;14.60;99.90
23289;DHT22;11813;50.834;4.280;2023-03-23T11:24:18;14.70;99.90
23289;DHT22;11813;50.834;4.280;2023-03-23T11:26:44;14.80;99.90
23289;DHT22;11813;50.834;4.280;2023-03-23T11:29:15;14.80;99.90
23289;DHT22;11813;50.834;4.280;2023-03-23T11:31:48;14.90;99.90
23289;DHT22;11813;50.834;4.280;2023-03-23T11:37:06;15.10;99.90
23289;DHT22;11813;50.834;4.280;2023-03-23T11:39:35;15.10;99.90
23289;DHT22;11813;50.834;4.280;2023-03-23T11:42:19;15.20;99.90
23289;DHT22;11813;50.834;4.280;2023-03-23T11:44:45;15.40;99.90
23289;DHT22;11813;50.834;4.280;2023-03-23T11:47:25;15.70;99.90
23289;DHT22;11813;50.834;4.280;2023-03-23T11:50:14;16.10;99.90
23289;DHT22;11813;50.834;4.280;2023-03-23T11:58:12;15.90;99.90
23289;DHT22;11813;50.834;4.280;2023-03-23T12:00:54;15.90;99.90
23289;DHT22;11813;50.834;4.280;2023-03-23T12:06:01;16.10;99.90
23289;DHT22;11813;50.834;4.280;2023-03-23T12:09:19;16.30;99.90
23289;DHT22;11813;50.834;4.280;2023-03-23T12:12:01;16.50;99.90
23289;DHT22;11813;50.834;4.280;2023-03-23T12:17:42;17.20;99.90
23289;DHT22;11813;50.834;4.280;2023-03-23T12:26:16;17.00;99.90
23289;DHT22;11813;50.834;4.280;2023-03-23T12:31:42;17.00;99.90
23289;DHT22;11813;50.834;4.280;2023-03-23T12:34:14;17.20;99.90
23289;DHT22;11813;50.834;4.280;2023-03-23T12:36:50;17.60;99.90
23289;DHT22;11813;50.834;4.280;2023-03-23T12:45:12;17.80;99.90
23289;DHT22;11813;50.834;4.280;2023-03-23T12:47:47;17.80;99.90
23289;DHT22;11813;50.834;4.280;2023-03-23T12:50:30;17.50;99.90
23289;DHT22;11813;50.834;4.280;2023-03-23T12:55:52;17.10;99.90
23289;DHT22;11813;50.834;4.280;2023-03-23T12:58:23;16.80;99.90
23289;DHT22;11813;50.834;4.280;2023-03-23T13:01:04;16.60;99.90
23289;DHT22;11813;50.834;4.280;2023-03-23T13:03:42;16.40;99.90
23289;DHT22;11813;50.834;4.280;2023-03-23T13:06:37;16.40;99.90
23289;DHT22;11813;50.834;4.280;2023-03-23T13:09:11;16.50;99.90
23289;DHT22;11813;50.834;4.280;2023-03-23T13:11:40;16.40;99.90
23289;DHT22;11813;50.834;4.280;2023-03-23T13:22:06;17.10;99.90
23289;DHT22;11813;50.834;4.280;2023-03-23T13:24:38;17.20;99.90
23289;DHT22;11813;50.834;4.280;2023-03-23T13:27:05;17.00;99.90
23289;DHT22;11813;50.834;4.280;2023-03-23T13:29:32;16.80;99.90
23289;DHT22;11813;50.834;4.280;2023-03-23T13:32:10;17.30;99.90
23289;DHT22;11813;50.834;4.280;2023-03-23T13:34:36;17.40;99.90
23289;DHT22;11813;50.834;4.280;2023-03-23T13:37:25;17.50;99.90
23289;DHT22;11813;50.834;4.280;2023-03-23T13:39:58;17.50;99.90
23289;DHT22;11813;50.834;4.280;2023-03-23T13:42:29;17.30;99.90
23289;DHT22;11813;50.834;4.280;2023-03-23T13:47:41;16.90;99.90
23289;DHT22;11813;50.834;4.280;2023-03-23T14:00:50;15.90;99.90
23289;DHT22;11813;50.834;4.280;2023-03-23T14:03:40;15.70;99.90
23289;DHT22;11813;50.834;4.280;2023-03-23T14:06:14;15.50;99.90
23289;DHT22;11813;50.834;4.280;2023-03-23T14:08:43;15.40;99.90
23289;DHT22;11813;50.834;4.280;2023-03-23T14:11:23;15.50;99.90
23289;DHT22;11813;50.834;4.280;2023-03-23T14:14:04;15.80;99.90
23289;DHT22;11813;50.834;4.280;2023-03-23T14:16:43;16.10;99.90
23289;DHT22;11813;50.834;4.280;2023-03-23T14:19:29;16.20;99.90
23289;DHT22;11813;50.834;4.280;2023-03-23T14:21:56;16.30;99.90
23289;DHT22;11813;50.834;4.280;2023-03-23T14:24:31;16.40;99.90
23289;DHT22;11813;50.834;4.280;2023-03-23T14:27:18;16.50;99.90
23289;DHT22;11813;50.834;4.280;2023-03-23T14:29:45;16.40;99.90
23289;DHT22;11813;50.834;4.280;2023-03-23T14:32:15;16.40;99.90
23289;DHT22;11813;50.834;4.280;2023-03-23T14:34:42;16.40;99.90
23289;DHT22;11813;50.834;4.280;2023-03-23T14:37:15;16.40;99.90
23289;DHT22;11813;50.834;4.280;2023-03-23T14:39:48;16.30;99.90
23289;DHT22;11813;50.834;4.280;2023-03-23T14:42:18;16.10;99.90
23289;DHT22;11813;50.834;4.280;2023-03-23T14:44:47;15.90;99.90
23289;DHT22;11813;50.834;4.280;2023-03-23T14:47:22;15.80;99.90
23289;DHT22;11813;50.834;4.280;2023-03-23T14:49:53;15.70;99.90
23289;DHT22;11813;50.834;4.280;2023-03-23T14:52:22;15.80;99.90
23289;DHT22;11813;50.834;4.280;2023-03-23T14:54:48;15.80;99.90
23289;DHT22;11813;50.834;4.280;2023-03-23T14:57:28;15.90;99.90
23289;DHT22;11813;50.834;4.280;2023-03-23T14:59:54;16.30;99.90
23289;DHT22;11813;50.834;4.280;2023-03-23T15:02:25;16.60;99.90
23289;DHT22;11813;50.834;4.280;2023-03-23T15:05:00;16.90;99.90
23289;DHT22;11813;50.834;4.280;2023-03-23T15:07:31;17.00;99.90
23289;DHT22;11813;50.834;4.280;2023-03-23T15:09:58;17.00;99.90
23289;DHT22;11813;50.834;4.280;2023-03-23T15:12:27;16.90;99.90
23289;DHT22;11813;50.834;4.280;2023-03-23T15:14:57;16.90;99.90
23289;DHT22;11813;50.834;4.280;2023-03-23T15:17:26;17.10;99.90
23289;DHT22;11813;50.834;4.280;2023-03-23T15:19:53;17.30;99.90
23289;DHT22;11813;50.834;4.280;2023-03-23T15:22:25;17.30;99.90
23289;DHT22;11813;50.834;4.280;2023-03-23T15:25:03;17.20;99.90
23289;DHT22;11813;50.834;4.280;2023-03-23T15:27:32;17.00;99.90
23289;DHT22;11813;50.834;4.280;2023-03-23T15:30:11;16.80;99.90
23289;DHT22;11813;50.834;4.280;2023-03-23T15:32:39;16.80;99.90
23289;DHT22;11813;50.834;4.280;2023-03-23T15:35:20;16.80;99.90
23289;DHT22;11813;50.834;4.280;2023-03-23T15:37:49;16.90;99.90
23289;DHT22;11813;50.834;4.280;2023-03-23T15:40:27;17.00;99.90
23289;DHT22;11813;50.834;4.280;2023-03-23T15:43:16;16.70;99.90
23289;DHT22;11813;50.834;4.280;2023-03-23T15:45:58;16.70;99.90
23289;DHT22;11813;50.834;4.280;2023-03-23T15:48:26;16.50;99.90
23289;DHT22;11813;50.834;4.280;2023-03-23T15:50:52;16.40;99.90
23289;DHT22;11813;50.834;4.280;2023-03-23T15:53:35;16.20;99.90
23289;DHT22;11813;50.834;4.280;2023-03-23T15:56:04;16.20;99.90
23289;DHT22;11813;50.834;4.280;2023-03-23T15:58:31;16.40;99.90
23289;DHT22;11813;50.834;4.280;2023-03-23T16:00:57;16.50;99.90
23289;DHT22;11813;50.834;4.280;2023-03-23T16:04:29;16.40;99.90
23289;DHT22;11813;50.834;4.280;2023-03-23T16:06:32;16.30;99.90
23289;DHT22;11813;50.834;4.280;2023-03-23T16:08:58;16.20;99.90
23289;DHT22;11813;50.834;4.280;2023-03-23T16:11:26;16.10;99.90
23289;DHT22;11813;50.834;4.280;2023-03-23T16:13:51;16.20;99.90
23289;DHT22;11813;50.834;4.280;2023-03-23T16:16:21;16.30;99.90
23289;DHT22;11813;50.834;4.280;2023-03-23T16:18:48;16.60;99.90
23289;DHT22;11813;50.834;4.280;2023-03-23T16:21:13;16.80;99.90
23289;DHT22;11813;50.834;4.280;2023-03-23T16:23:39;17.00;99.90
23289;DHT22;11813;50.834;4.280;2023-03-23T16:26:07;17.10;99.90
23289;DHT22;11813;50.834;4.280;2023-03-23T16:28:33;17.30;99.90
23289;DHT22;11813;50.834;4.280;2023-03-23T16:30:59;17.80;99.90
23289;DHT22;11813;50.834;4.280;2023-03-23T16:33:24;18.20;99.90
23289;DHT22;11813;50.834;4.280;2023-03-23T16:35:50;18.50;99.90
23289;DHT22;11813;50.834;4.280;2023-03-23T16:38:16;18.60;99.90
23289;DHT22;11813;50.834;4.280;2023-03-23T16:40:43;18.70;99.90
23289;DHT22;11813;50.834;4.280;2023-03-23T16:43:09;18.80;99.90
23289;DHT22;11813;50.834;4.280;2023-03-23T16:45:37;19.00;99.90
23289;DHT22;11813;50.834;4.280;2023-03-23T16:48:03;19.10;99.90
23289;DHT22;11813;50.834;4.280;2023-03-23T16:50:29;19.00;99.90
23289;DHT22;11813;50.834;4.280;2023-03-23T16:52:55;18.50;99.90
23289;DHT22;11813;50.834;4.280;2023-03-23T16:55:21;18.00;99.90
23289;DHT22;11813;50.834;4.280;2023-03-23T16:57:47;17.50;99.90
23289;DHT22;11813;50.834;4.280;2023-03-23T17:00:15;17.30;99.90
23289;DHT22;11813;50.834;4.280;2023-03-23T17:02:45;17.00;99.90
23289;DHT22;11813;50.834;4.280;2023-03-23T17:05:11;16.80;99.90
23289;DHT22;11813;50.834;4.280;2023-03-23T17:07:38;16.70;99.90
23289;DHT22;11813;50.834;4.280;2023-03-23T17:10:04;16.50;99.90
23289;DHT22;11813;50.834;4.280;2023-03-23T17:12:30;16.40;99.90
23289;DHT22;11813;50.834;4.280;2023-03-23T17:14:56;16.40;99.90
23289;DHT22;11813;50.834;4.280;2023-03-23T17:17:22;16.20;99.90
23289;DHT22;11813;50.834;4.280;2023-03-23T17:19:48;16.10;99.90
23289;DHT22;11813;50.834;4.280;2023-03-23T17:22:13;16.20;99.90
23289;DHT22;11813;50.834;4.280;2023-03-23T17:24:39;16.30;99.90
23289;DHT22;11813;50.834;4.280;2023-03-23T17:27:05;16.20;99.90